Portada
METAR-TAF:

METAR-TAF

Aeropuertos :

Port Moresby, Papúa Nueva Guinea

Aeropuerto Internacional de Jacksons

latitud: 09-26S, longitud: 147-13E, altitud: 38 m

METAR: falta

Hora: 09:39 (23:39 UTC)

Pronóstico

El informe se hizo hace 7 horas y 56 minutos, a las 15:43 UTC
Pronóstico válido del 20 a las 18 UTC al 21 a las 18 UTC
Viento 3 kt con dirección variable
Visibilidad 10 km o más
Nubes dispersas a una altura de 1500 ft
Nubes dispersas a una altura de 3000 ft
Cielo cubierto a una altura de 12000 ft
A partir de las 20 a las 2300 UTC
Viento 6 kt del norte-noroeste
Visibilidad 10 km o más
Nubes dispersas a una altura de 1600 ft
Nubes dispersas a una altura de 3000 ft
Cielo cubierto a una altura de 12000 ft
Cielo nuboso a una altura de 800 ft

TAF: AYPY 201543Z 2018/2118 VRB03KT 9999 -R ADZ Z SCT015 SCT030 OVC120 FM202300 34006KT 9999 -R ADZ Z SCT016 SCT030 OVC120 INTER 2018/2024 9999 +R ADZ Z BKN008

Observaciones y pronósticos meteorológicos de más de 4000 aeropuertos (mensajes METAR y TAF).

Los puntos amarillos y rojos representan las estaciones disponibles.

Ponga el ratón en el punto deseado para ver el nombre de la estación.

Haga clic para ver las observaciones y los pronósticos meteorológicos.

Para cambiar el mapa : haga clic en los botones verdes con una cruz de color negro para hacer un zoom, en el botón verde con un guión para alejar o en las flechas verdes para mapas adyacentes.


METAR-TAF: